LiveATC.Net - Listen to live air traffic control over the Internet!

Airport/ARTCC Code
Frequency Search
(e.g., 124.400, 128.75)
Site-wide search
 


Browse Feeds
Top 50 Feeds
HF Oceanic Feeds
Coverage Map
Bad Weather Areas

LiveATC FAQ

Increase Coverage

Contact LiveATC.net
Press Inquiries

LiveATC on iPhone
LiveATC on Android

LiveATC Mobile
(Mobile browser)

ATC Audio Archives
Interesting Recordings

LiveATC Forums

Home Page
About LiveATC.net


Terms of Use
Privacy Policy

AIRMETs/SIGMETs

FAA Airport Status
NAS Status
Arrival Demand


Server Software By:
Icecast.org
Liquidsoap


Current Potentially Bad Weather Airports
(updated every 30 minutes - sorted alphabetically by ICAO code)



This page lists LiveATC.net airport areas that may be interesting to listen to because of challenging flying (weather) conditions. Challenging weather conditions include low ceilings, limited visibility, high or gusty winds, or thunderstorms.

Updated: Mon May 27 18:10:01 UTC 2024
Click on airport name to go to that airport area's feeds.

CYHU Tower Saint-Hubert Airport (Montreal, CA-QC)
WX MAP UNAVAILABLENearest METAR:
CYHU 271700Z AUTO 16022G37KT 9SM FEW042 BKN086 25/17 A2968 RMK SLP051 DENSITY ALT 1600FT
CYSB Gnd/Twr/Center Sudbury Airport (Sudbury, CA-ON)
WX MAP UNAVAILABLENearest METAR:
CYSB 271700Z 03016G27KT 2 1/2SM -RA BR OVC040 13/12 A2946 RMK SC8 SLP980 DENSITY ALT 1700FT
CYUL Approach/Departure Pierre Elliott Trudeau International Airport (Montreal, CA-QC)
WX MAP UNAVAILABLENearest METAR:
CYUL 271700Z 16022G30KT 15SM FEW036 SCT077 OVC250 25/17 A2967 RMK CU2AC1CI5 SLP048 DENSITY ALT 1700FT
KPHL App (NW Pottstown Area) Philadelphia International Airport (Philadelphia, US-PA)
WX MAP UNAVAILABLENearest METAR:
KPHL 271754Z 14007KT 2 1/2SM RA BR SCT010 BKN015 OVC045 22/22 A2977 RMK AO2 TSE20 SLP079 P0011 60039 T02220217 10250 20222 58017 $
KACY App/Dep Atlantic City International Airport (Atlantic City, US-NJ)
WX MAP UNAVAILABLENearest METAR:
KACY 271754Z 17010KT 3SM HZ FEW065 SCT085 OVC110 22/19 A2981 RMK AO2 LTG DSNT NE AND E SLP092 60048 T02220189 10244 20206 58016 $
KAOH CTAF Lima Allen County Airport (Lima, US-OH)
WX MAP UNAVAILABLENearest METAR:
KAOH 271753Z AUTO 24021G31KT 10SM SCT018 BKN036 OVC042 19/14 A2970 RMK AO2 PK WND 27034/1717 SLP051 T01890139 10206 20183 51023
KASH Ground/FBO Boire Field Airport (Nashua, US-NH)
WX MAP UNAVAILABLENearest METAR:
KASH 271756Z 06006KT 3SM -RA OVC004 16/ A2996 RMK AO2 RAB29 SLP148 P0000 60002 T0156 10161 20144 58016
KMHT Boston App/Dep #3 Manchester Airport (Manchester, US-NH)
WX MAP UNAVAILABLENearest METAR:
KMHT 271753Z 10006KT 2 1/2SM -RA BR OVC004 16/14 A2994 RMK AO2 SFC VIS 4 RAB46 SLP152 P0000 60001 T01560139 10161 20144 56013
KAUG CTAF/FSS Augusta State Airport (Augusta, US-ME)
WX MAP UNAVAILABLENearest METAR:
KAUG 271753Z AUTO 13011G17KT 2SM BR OVC006 13/12 A3005 RMK AO2 RAB1655E06B30E51 SLP177 P0000 60004 T01330122 10133 20117 56015 $
Boston App/Dep (North Sat) #1 Laurence G Hanscom Field Airport (Bedford, US-MA)
WX MAP UNAVAILABLENearest METAR:
KBED 271751Z 07007KT 2SM BR OVC004 18/16 A2993 RMK AO2 SLP145 T01830161 10183 20161 58020
KBID CTAF Block Island State Airport (Block Island, US-RI)
WX MAP UNAVAILABLENearest METAR:
KBID 271756Z AUTO 15014KT 1SM BR OVC001 17/17 A2993 RMK AO2 SLP135 6//// T01670167 10178 20150 58013 PNO $
KBOK/KCEC CTAF Brookings Airport (Brookings, US-OR)
WX MAP UNAVAILABLENearest METAR:
KBOK 271756Z AUTO VRB03KT 10SM OVC005 11/09 A3014 RMK AO2 SLP207 6//// T01060094 10111 20067 55002
MA/NH/RI/CT Area CTAF Fitchburg Municipal Airport (Fitchburg, US-MA)
WX MAP UNAVAILABLENearest METAR:
KEEN 271758Z AUTO 08003KT 2 1/2SM +RA BR SCT009 BKN012 OVC045 18/17 A2989 RMK AO2 VIS 1 3/4V5 P0001 $
MA/NH/RI/CT Area CTAF Fitchburg Municipal Airport (Fitchburg, US-MA)
WX MAP UNAVAILABLENearest METAR:
KCON 271751Z AUTO 10SM -RA OVC006 15/14 A2996 RMK AO2 RAB44 SLP147 P0000 60000 T01500139 10150 20133 58015 $
MA/NH/RI/CT Area CTAF Fitchburg Municipal Airport (Fitchburg, US-MA)
WX MAP UNAVAILABLENearest METAR:
KSFZ 271756Z AUTO 14010KT 110V180 10SM OVC007 21/19 A2994 RMK AO2 SLP135 60000 T02110194 10217 20178 58016 $
MA/NH/RI/CT Area CTAF Fitchburg Municipal Airport (Fitchburg, US-MA)
WX MAP UNAVAILABLENearest METAR:
KFIT 271752Z AUTO 05004KT 1SM BR OVC002 16/15 A2994 RMK AO2 RAB1655E08 SLP137 P0000 60001 T01610150 10161 20150 58019
KBTV Del/Gnd/Twr/App #1 Burlington International Airport (Burlington, US-VT)
WX MAP UNAVAILABLENearest METAR:
KBTV 271754Z 14021G37KT 10SM FEW035 SCT048 SCT080 25/15 A2972 RMK AO2 PK WND 13037/1745 SLP063 MTNS E-SE OBSCD 60001 T02500150 10267 20194 58024
KBUF Gnd/Twr/App Buffalo Niagara International Airport (Buffalo, US-NY)
WX MAP UNAVAILABLENearest METAR:
KBUF 271754Z 23020G31KT 10SM SCT038 BKN048 BKN060 22/16 A2954 RMK AO2 PK WND 25031/1750 SLP998 60013 T02220156 10250 20189 53008 $
KBVY Tower #1 Beverly Municipal Airport (Beverly, US-MA)
WX MAP UNAVAILABLENearest METAR:
KBVY 271753Z 11006KT 2SM BR OVC003 16/16 A2995 RMK AO2 VIS 1 1/2V3 SLP138 60001 T01560156 10161 20144 58008 $
KCCO CTAF Newnan Coweta County Airport (Atlanta, US-GA)
WX MAP UNAVAILABLENearest METAR:
KCCO 271755Z AUTO 21006KT 10SM SCT015 SCT031 SCT037 26/22 A2996 RMK AO2 LTG DSNT SE AND S 60023 T02610219 10261 20181
KDAY Del/Gnd/Twr/App James M Cox Dayton International Airport (Dayton, US-OH)
WX MAP UNAVAILABLENearest METAR:
KDAY 271756Z 26023G31KT 10SM -RA SCT026 BKN033 23/16 A2973 RMK AO2 PK WND 25031/1751 RAB52 SLP059 P0000 60000 T02280161 10239 20183 53015 $
KDMW AWOS #1 Carroll County Regional Airport/Jack B Poage Field (Westminster, US-MD)
WX MAP UNAVAILABLENearest METAR:
KDMW 271740Z AUTO 17010G14KT BKN017 24/21 A2975 RMK AO2 LTG DSNT S PWINO
KEST CTAF Estherville Municipal Airport (Estherville, US-IA)
WX MAP UNAVAILABLENearest METAR:
KEST 271752Z AUTO 01009KT 10SM TS FEW046 SCT060 SCT110 17/11 A2984 RMK AO2 PK WND 35040/1735 LTG DSNT NE RAB34E50 TSB33 SLP104 P0011 60011 T01720106 10222 20139 50001
Boston Approach (Cape North) Cape Cod Gateway Airport (Hyannis, US-MA)
WX MAP UNAVAILABLENearest METAR:
KHYA 271756Z 16007KT 10SM OVC008 19/16 A2996 RMK AO2 SLP145 T01890161 10189 20150 58012
KGED ASOS Delaware Coastal Airport (Georgetown, US-DE)
WX MAP UNAVAILABLENearest METAR:
KGED 271754Z AUTO 18012G20KT 6SM -RA BR BKN095 OVC110 23/22 A2981 RMK AO2 LTG DSNT SW AND W RAE03B31 SLP092 P0002 60002 T02280217 10272 20217 58008
KGGE CTAF Georgetown County Airport (Georgetown, US-SC)
WX MAP UNAVAILABLENearest METAR:
KGGE 271755Z AUTO 19005KT 10SM CLR 29/22 A2984 RMK AO2 LTG DSNT E
KGRR Del/Gnd/Twr/App Gerald R. Ford International Airport (Grand Rapids, US-MI)
WX MAP UNAVAILABLENearest METAR:
KGRR 271753Z 26018G25KT 10SM OVC006 14/12 A2959 RMK AO2 PK WND 25026/1719 SLP018 60000 T01390122 10144 20128 51027
KJPX CTAF/Tower East Hampton Town Airport (East Hampton, US-NY)
WX MAP UNAVAILABLENearest METAR:
KJPX 271755Z AUTO 14010G15KT 10SM OVC005 19/16 A2989 RMK AO2 T01880159
KIAG Del/Gnd/Twr #1 Niagara Falls International Airport (Niagara Falls, US-NY)
WX MAP UNAVAILABLENearest METAR:
KIAG 271753Z 24025G39KT 10SM FEW029 SCT050 BKN060 24/17 A2952 RMK AO2 PK WND 23039/1750 SLP991 60014 T02440167 10244 20194 50007
KLBE Ground/Tower Arnold Palmer Regional Airport (Latrobe, US-PA)
WX MAP UNAVAILABLENearest METAR:
KLBE 271745Z 22023G32KT 10SM BKN037 BKN046 BKN085 24/17 A2969
KLCI Del/CTAF Laconia Municipal Airport (Laconia, US-NH)
WX MAP UNAVAILABLENearest METAR:
KLCI 271756Z AUTO 08012KT 6SM HZ OVC005 14/ A2997 RMK AO2 SLP149 60000 T0139 10139 20122 58014
KLFI Del/Gnd/Twr Langley Air Force Base (Hampton, US-VA)
WX MAP UNAVAILABLENearest METAR:
KLFI 271655Z AUTO 19008KT 8SM CLR 23/21 A2982 RMK AO2 LTG DSNT SE RAE25DZB25E29RAB29E48 SLP104 P0005 T02340213 $
KLWM Ground/Tower Lawrence Municipal Airport (Lawrence, US-MA)
WX MAP UNAVAILABLENearest METAR:
KLWM 271754Z 08007KT 1SM BR OVC002 15/14 A2998 RMK AO2 SLP150 60000 T01500144 10150 20139 57019 $
KMFD ATIS Mansfield Lahm Regional Airport (Mansfield, US-OH)
WX MAP UNAVAILABLENearest METAR:
KMFD 271752Z AUTO 20020G34KT 10SM FEW028 SCT035 BKN055 23/15 A2964 RMK AO2 PK WND 21034/1752 SLP028 60000 T02330150 10233 20178 50008
KMGM App/Dep Montgomery Regional Airport (Dannelly Field) (Montgomery, US-AL)
WX MAP UNAVAILABLENearest METAR:
KMGM 271753Z 23011KT 10SM FEW030 FEW037 31/25 A2990 RMK AO2 LTG DSNT NE AND E RAB1654E23 SLP123 P0003 60003 T03110250 10311 20256 58008
KCON/KDAW/KFIT CTAF Concord Municipal Airport (Concord, US-NH)
WX MAP UNAVAILABLENearest METAR:
KDAW 271751Z AUTO 08007KT 2SM BR OVC003 14/12 A2999 RMK AO2 SLP152 60000 T01390122 10144 20128 58008
MA/NH CTAF 122.8 Minute Man Air Field (Stow, US-MA)
WX MAP UNAVAILABLENearest METAR:
KAFN 271752Z AUTO 00000KT 8SM -RA OVC004 16/14 A2994 RMK AO2 SLP141 P0002 60004 T01610144 10167 20156 58014
KSFM CTAF Sanford Seacoast Regional Airport (Sanford, US-ME)
WX MAP UNAVAILABLENearest METAR:
KSFM 271756Z AUTO 06010KT 4SM -RA BR OVC003 13/13 A3000 RMK AO2 SLP163 P0000 60000 T01280128 10128 20111 58009 $
KMIC ATIS Crystal Airport (Minneapolis, US-MN)
WX MAP UNAVAILABLENearest METAR:
KMIC 271753Z 11004KT 10SM BKN012 BKN080 OVC110 16/13 A2980 RMK AO2 LTG DSNT N SLP091 60008 T01610133 10167 20128 50002
KMJX CTAF Ocean County Airport (Toms River, US-NJ)
WX MAP UNAVAILABLENearest METAR:
KMJX 271756Z AUTO 18013G21KT 10SM OVC011 23/21 A2982 RMK AO2 LTG DSNT SE AND S RAB29E40 SLP101 P0001 60007 T02280206 10250 20200 58013
KMKG Gnd/Twr/App/Dep Muskegon County Airport (Muskegon, US-MI)
WX MAP UNAVAILABLENearest METAR:
KMKG 271755Z 30011G20KT 2SM BR OVC004 14/12 A2960 RMK AO2 PK WND 29026/1732 SFC VIS 5 SLP023 60001 T01440122 10144 20122 51031
KMRY Del/Gnd/Twr Monterey Peninsula Airport (Monterey, US-CA)
WX MAP UNAVAILABLENearest METAR:
KMRY 271754Z 31005KT 7SM OVC009 12/09 A3011 RMK AO2 SLP209 T01220089 10122 20106 51009 $
KOQN AWOS Brandywine Airport (West Chester, US-PA)
WX MAP UNAVAILABLENearest METAR:
KOQN 271755Z AUTO 17004KT 10SM SCT007 BKN012 OVC060 22/20 A2977 RMK AO2 P0008 LTG DSNT S
KORF Approach 118.9 Norfolk International Airport (Norfolk, US-VA)
WX MAP UNAVAILABLENearest METAR:
KORF 271751Z 17010G18KT 10SM FEW037 FEW120 24/23 A2983 RMK AO2 LTG DSNT E-SW RAE36 SLP099 P0000 60046 T02440228 10272 20228 58009 $
KOXC Ground/Tower Waterbury-Oxford Airport (Oxford, US-CT)
WX MAP UNAVAILABLENearest METAR:
KOXC 271756Z 15012G16KT 2SM BR OVC002 20/19 A2987 RMK AO2 SLP122 60014 T02000194 10200 20178 58017
KPNE Del/Gnd/Twr/App Northeast Philadelphia Airport (Philadelphia, US-PA)
WX MAP UNAVAILABLENearest METAR:
KPNE 271757Z 16007KT 130V200 2 1/2SM +RA BR SCT012 BKN019 OVC065 23/21 A2979 RMK AO2 P0000 T02280211
KPSM Gnd/Twr/App/GCA Portsmouth International Airport at Pease (Portsmouth, US-NH)
WX MAP UNAVAILABLENearest METAR:
KPSM 271755Z 05008KT 5/8SM R16/P6000FT BR OVC001 15/14 A2998 RMK AO2A RAE09 SLP155 P0000 60000 T01450137 10145 20125 57016
KPVD App/Dep Theodore Francis Green State Airport (Providence, US-RI)
WX MAP UNAVAILABLENearest METAR:
KPVD 271751Z 15008KT 7SM OVC004 18/18 A2994 RMK AO2 SLP137 60000 T01830183 10194 20172 58010 $
KPWM App/Dep #1 Portland International Jetport (Portland, US-ME)
WX MAP UNAVAILABLENearest METAR:
KPWM 271751Z 09010KT 1/2SM FG VV002 12/12 A3003 RMK AO2 SLP168 60001 T01170117 10122 20117 56012
KROG/KXNA/KVBT/Misc Rogers Executive Airport - Carter Field (Rogers, US-AR)
WX MAP UNAVAILABLENearest METAR:
KVBT 260645Z AUTO 30023G44KT 1 3/4SM +TSRA BR OVC021 22/21 A2949 RMK AO2 PK WND 30044/0645 WSHFT 0631 LTG DSNT ALQDS PRESFR $
KUUU CTAF/Del Newport State Airport (Newport, US-RI)
WX MAP UNAVAILABLENearest METAR:
KUUU 271753Z AUTO 15012G19KT 7SM OVC002 18/17 A2993 RMK AO2 SLP133 T01830172 10183 20161 58017
KWDR/KCVC/KCNI CTAF Cherokee County Airport (Canton, US-GA)
WX MAP UNAVAILABLENearest METAR:
KCNI 271755Z AUTO 22008G18KT 190V250 10SM BKN026 BKN034 OVC039 25/20 A2993 RMK AO2 LTG DSNT SE T02500197 10268 20168 60032
PASC CTAF/Unicom/AFIS/App Deadhorse Airport (Deadhorse, US-AK)
WX MAP UNAVAILABLENearest METAR:
PASC 271753Z 08014KT 1 1/2SM R06/3000V5000FT -SN BR SCT006 OVC010 M01/M03 A2996 RMK AO2 SLP147 P0000 60000 T10111028 11006 21017 56005
SBMG Twr/App Regional de Maringa Silvio Name Junior Airport (Maringa, Brazil)
WX MAP UNAVAILABLENearest METAR:
SBMG 271700Z 29008KT 2500 -DZ BR SCT002 OVC003 16/15 Q1019
SUAA Tower Angel S. Adami Airport (Montevideo, Uruguay)
WX MAP UNAVAILABLENearest METAR:
SUAA 271800Z 16009KT 2500 +RA OVC002 12/11 Q1023
SUMU Twr/App Carrasco General Cesareo L. Berisso International Airport (Montevideo, Uruguay)
WX MAP UNAVAILABLENearest METAR:
SUMU 271800Z 15010KT 2500 RA BR OVC002 12/12 Q1022 NOSIG
TJPS Del/CTAF/Center Mercedita Airport (Ponce, US-PR)
WX MAP UNAVAILABLENearest METAR:
TJPS 271755Z AUTO 15014G20KT 10SM CLR 33/26 A2996 RMK AO2 LTG DSNT NW PWINO
YSCB Twr/App/Dep Canberra International Airport (Canberra, AU-ACT)
WX MAP UNAVAILABLENearest METAR:
YSCB 271800Z AUTO 00000KT 0250 FZFG BKN001 M02/M02 Q1028 RF00.0/000.0